createdAt,value
2023-02-08T00:04:11.281Z,32.35
2023-02-08T00:09:16.391Z,35.78
2023-02-08T00:14:20.242Z,35.30
2023-02-08T00:19:24.021Z,46.42
2023-02-08T00:24:29.200Z,38.40
2023-02-08T00:29:33.581Z,36.25
2023-02-08T00:34:37.399Z,33.83
2023-02-08T00:39:42.494Z,30.90
2023-02-08T00:44:46.418Z,34.20
2023-02-08T00:49:50.166Z,34.70
2023-02-08T00:54:55.276Z,33.95
2023-02-08T00:59:59.039Z,28.55
2023-02-08T01:05:02.820Z,27.75
2023-02-08T01:10:12.908Z,30.23
2023-02-08T01:15:17.786Z,33.10
2023-02-08T01:20:21.722Z,25.25
2023-02-08T01:25:26.899Z,23.65
2023-02-08T01:30:30.761Z,25.55
2023-02-08T01:35:34.594Z,22.67
2023-02-08T01:40:40.092Z,28.05
2023-02-08T01:45:44.133Z,27.00
2023-02-08T01:50:53.585Z,24.87
2023-02-08T01:56:10.766Z,29.25
2023-02-08T02:01:15.333Z,28.23
2023-02-08T02:06:25.103Z,23.05
2023-02-08T02:11:30.353Z,25.35
2023-02-08T02:16:34.209Z,25.25
2023-02-08T02:21:55.740Z,26.25
2023-02-08T02:27:21.646Z,27.00
2023-02-08T02:32:40.356Z,26.90
2023-02-08T02:37:56.424Z,25.05
2023-02-08T02:43:24.808Z,23.42
2023-02-08T02:48:39.718Z,25.30
2023-02-08T02:53:51.097Z,31.30
2023-02-08T02:58:59.868Z,29.50
2023-02-08T03:04:15.393Z,26.25
2023-02-08T03:09:49.211Z,24.77
2023-02-08T03:15:03.929Z,23.42
2023-02-08T03:20:13.426Z,23.58
2023-02-08T03:25:22.142Z,33.55
2023-02-08T03:30:31.951Z,31.45
2023-02-08T03:35:45.210Z,25.50
2023-02-08T03:40:52.938Z,24.50
2023-02-08T03:46:03.100Z,29.05
2023-02-08T03:51:10.073Z,32.33
2023-02-08T03:56:19.976Z,24.27
2023-02-08T04:01:29.653Z,27.62
2023-02-08T04:06:34.850Z,27.85
2023-02-08T04:11:38.605Z,31.85
2023-02-08T04:16:42.337Z,25.25
2023-02-08T04:21:47.593Z,25.67
2023-02-08T04:26:52.570Z,24.90
2023-02-08T04:31:56.506Z,24.85
2023-02-08T04:37:01.668Z,26.12
2023-02-08T04:42:05.613Z,25.37
2023-02-08T04:47:09.689Z,34.67
2023-02-08T04:52:14.802Z,29.58
2023-02-08T04:57:18.568Z,31.73
2023-02-08T05:02:22.293Z,24.25
2023-02-08T05:07:27.369Z,27.25
2023-02-08T05:12:31.194Z,21.77
2023-02-08T05:17:34.997Z,20.62
2023-02-08T05:22:40.197Z,21.67
2023-02-08T05:27:43.924Z,23.23
2023-02-08T05:32:47.723Z,27.37
2023-02-08T05:37:52.928Z,24.87
2023-02-08T05:42:56.732Z,24.65
2023-02-08T05:48:00.542Z,24.12
2023-02-08T05:53:05.669Z,21.75
2023-02-08T05:58:09.709Z,24.12
2023-02-08T06:03:13.678Z,19.45
2023-02-08T06:08:19.017Z,30.55
2023-02-08T06:13:22.821Z,22.17
2023-02-08T06:18:26.804Z,22.58
2023-02-08T06:23:31.919Z,24.42
2023-02-08T06:28:35.661Z,26.45
2023-02-08T06:33:39.401Z,23.25
2023-02-08T06:38:45.029Z,27.37
2023-02-08T06:43:48.780Z,24.67
2023-02-08T06:48:52.563Z,26.67
2023-02-08T06:53:57.716Z,19.70
2023-02-08T06:59:01.431Z,24.15
2023-02-08T07:04:05.529Z,21.87
2023-02-08T07:09:10.645Z,24.10
2023-02-08T07:14:15.708Z,26.98
2023-02-08T07:19:19.449Z,25.48
2023-02-08T07:24:24.915Z,20.52
2023-02-08T07:29:30.615Z,23.87
2023-02-08T07:34:36.755Z,21.37
2023-02-08T07:39:42.141Z,23.50
2023-02-08T07:44:46.102Z,20.17
2023-02-08T07:49:49.840Z,26.65
2023-02-08T07:54:54.976Z,27.23
2023-02-08T07:59:58.738Z,20.62
2023-02-08T08:05:02.519Z,23.42
2023-02-08T08:10:08.254Z,17.98
2023-02-08T08:15:12.089Z,20.52
2023-02-08T08:20:15.821Z,19.73
2023-02-08T08:25:21.000Z,19.45
2023-02-08T08:30:25.088Z,31.23
2023-02-08T08:35:28.941Z,22.80
2023-02-08T08:40:34.162Z,24.90
2023-02-08T08:45:38.261Z,19.50
2023-02-08T08:50:43.279Z,28.20
2023-02-08T08:55:48.485Z,25.70
2023-02-08T09:00:52.274Z,20.75
2023-02-08T09:05:56.148Z,21.90
2023-02-08T09:11:07.144Z,18.45
2023-02-08T09:16:14.592Z,19.20
2023-02-08T09:21:20.921Z,22.62
2023-02-08T09:26:26.601Z,20.67
2023-02-08T09:31:32.673Z,23.58
2023-02-08T09:36:38.429Z,24.35
2023-02-08T09:42:04.577Z,20.60
2023-02-08T09:47:14.714Z,23.45
2023-02-08T09:52:25.215Z,17.48
2023-02-08T09:57:36.188Z,21.33
2023-02-08T10:02:42.918Z,17.55
2023-02-08T10:07:47.071Z,15.90
2023-02-08T10:13:00.105Z,15.50
2023-02-08T10:18:24.439Z,14.00
2023-02-08T10:23:56.478Z,13.73
2023-02-08T10:29:25.934Z,14.48
2023-02-08T10:34:39.733Z,18.67
2023-02-08T10:39:44.150Z,15.80
2023-02-08T10:44:57.527Z,13.93
2023-02-08T10:50:03.983Z,16.02
2023-02-08T10:55:14.664Z,17.15
2023-02-08T11:00:23.380Z,11.52
2023-02-08T11:05:35.096Z,11.90
2023-02-08T11:10:40.069Z,11.90
2023-02-08T11:15:48.609Z,11.02
2023-02-08T11:20:54.605Z,9.27
2023-02-08T11:26:18.177Z,11.38
2023-02-08T11:31:23.263Z,9.95
2023-02-08T11:36:27.830Z,8.82
2023-02-08T11:41:31.928Z,7.47
2023-02-08T11:46:39.503Z,9.90
2023-02-08T11:51:43.328Z,11.23
2023-02-08T11:57:02.894Z,8.43
2023-02-08T12:02:32.351Z,6.93
2023-02-08T12:07:48.873Z,10.77
2023-02-08T12:13:10.104Z,6.03
2023-02-08T12:18:36.567Z,7.45
2023-02-08T12:23:49.597Z,9.10
2023-02-08T12:29:10.964Z,5.70
2023-02-08T12:34:23.686Z,5.97
2023-02-08T12:40:00.735Z,5.90
2023-02-08T12:45:28.893Z,6.27
2023-02-08T12:50:42.572Z,8.00
2023-02-08T12:55:49.887Z,7.72
2023-02-08T13:00:56.825Z,7.47
2023-02-08T13:06:07.708Z,5.32
2023-02-08T13:11:20.103Z,7.90
2023-02-08T13:16:27.290Z,8.48
2023-02-08T13:21:38.071Z,5.78
2023-02-08T13:26:42.171Z,5.97
2023-02-08T13:31:49.745Z,6.95
2023-02-08T13:36:59.538Z,4.53
2023-02-08T13:42:05.717Z,6.97
2023-02-08T13:47:25.589Z,4.55
2023-02-08T13:52:53.687Z,4.05
2023-02-08T13:57:58.930Z,3.65
2023-02-08T14:03:04.564Z,5.70
2023-02-08T14:08:19.965Z,3.40
2023-02-08T14:13:30.222Z,3.45
2023-02-08T14:18:33.977Z,5.20
2023-02-08T14:23:40.819Z,2.17
2023-02-08T14:28:48.814Z,2.42
2023-02-08T14:39:29.028Z,3.55
2023-02-08T14:44:57.156Z,3.55
2023-02-08T14:50:09.655Z,2.90
2023-02-08T14:55:20.721Z,2.53
2023-02-08T15:00:27.946Z,3.62
2023-02-08T15:05:38.089Z,4.07
2023-02-08T15:10:45.091Z,4.00
2023-02-08T15:15:53.862Z,3.57
2023-02-08T15:21:03.439Z,3.80
2023-02-08T15:26:21.999Z,4.55
2023-02-08T15:31:31.799Z,6.12
2023-02-08T15:36:38.497Z,9.65
2023-02-08T15:41:43.616Z,7.15
2023-02-08T15:46:48.528Z,8.00
2023-02-08T15:51:54.654Z,8.98
2023-02-08T15:57:03.878Z,9.27
2023-02-08T16:02:21.290Z,9.45
2023-02-08T16:07:29.471Z,7.63
2023-02-08T16:12:35.853Z,4.93
2023-02-08T16:17:44.719Z,4.80
2023-02-08T16:22:56.844Z,6.12
2023-02-08T16:28:02.406Z,6.72
2023-02-08T16:33:08.776Z,5.87
2023-02-08T16:38:21.324Z,8.13
2023-02-08T16:43:31.721Z,5.85
2023-02-08T16:48:37.545Z,7.87
2023-02-08T16:53:42.796Z,8.30
2023-02-08T16:58:48.057Z,10.30
2023-02-08T17:03:53.000Z,7.75
2023-02-08T17:08:57.123Z,14.57
2023-02-08T17:14:02.230Z,12.77
2023-02-08T17:19:06.050Z,7.68
2023-02-08T17:24:09.868Z,11.93
2023-02-08T17:29:15.434Z,16.92
2023-02-08T17:34:19.249Z,25.12
2023-02-08T17:39:23.099Z,13.00
2023-02-08T17:44:28.376Z,11.93
2023-02-08T17:49:32.133Z,11.20
2023-02-08T17:54:37.659Z,12.25
2023-02-08T17:59:43.245Z,10.35
2023-02-08T18:04:47.276Z,8.48
2023-02-08T18:09:51.042Z,10.13
2023-02-08T18:14:56.145Z,11.88
2023-02-08T18:20:02.178Z,8.45
2023-02-08T18:25:07.995Z,10.65
2023-02-08T18:30:14.523Z,10.82
2023-02-08T18:35:18.407Z,16.87
2023-02-08T18:40:22.971Z,17.25
2023-02-08T18:45:28.247Z,17.08
2023-02-08T18:50:32.309Z,19.85
2023-02-08T18:55:36.150Z,14.82
2023-02-08T19:00:41.844Z,15.20
2023-02-08T19:05:46.442Z,13.68
2023-02-08T19:10:50.474Z,12.88
2023-02-08T19:15:55.927Z,14.02
2023-02-08T19:21:04.972Z,14.77
2023-02-08T19:26:17.241Z,11.57
2023-02-08T19:31:24.519Z,12.82
2023-02-08T19:36:30.792Z,12.77
2023-02-08T19:41:37.096Z,16.20
2023-02-08T19:46:44.266Z,17.23
2023-02-08T19:51:48.286Z,21.45
2023-02-08T19:56:54.809Z,16.00
2023-02-08T20:02:01.810Z,20.17
2023-02-08T20:07:06.414Z,19.42
2023-02-08T20:12:10.150Z,14.48
2023-02-08T20:17:15.286Z,18.48
2023-02-08T20:22:19.427Z,21.75
2023-02-08T20:27:23.227Z,14.63
2023-02-08T20:32:28.861Z,23.80
2023-02-08T20:37:32.925Z,15.15
2023-02-08T20:42:37.229Z,15.63
2023-02-08T20:47:46.669Z,13.60
2023-02-08T20:52:50.709Z,18.37
2023-02-08T20:57:54.459Z,17.90
2023-02-08T21:02:59.590Z,15.77
2023-02-08T21:08:03.534Z,14.02
2023-02-08T21:13:07.312Z,13.02
2023-02-08T21:18:12.660Z,23.85
2023-02-08T21:23:17.129Z,27.95
2023-02-08T21:28:21.226Z,20.45
2023-02-08T21:33:26.772Z,14.68
2023-02-08T21:38:30.906Z,18.60
2023-02-08T21:43:34.681Z,16.67
2023-02-08T21:48:53.804Z,16.70
2023-02-08T21:54:14.860Z,20.40
2023-02-08T21:59:18.581Z,18.83
2023-02-08T22:04:23.777Z,16.35
2023-02-08T22:09:29.102Z,24.10
2023-02-08T22:14:35.080Z,22.15
2023-02-08T22:19:40.623Z,21.73
2023-02-08T22:24:44.422Z,16.00
2023-02-08T22:29:48.161Z,16.98
2023-02-08T22:34:53.542Z,16.00
2023-02-08T22:39:57.405Z,22.05
2023-02-08T22:45:01.210Z,16.87
2023-02-08T22:50:07.859Z,20.52
2023-02-08T22:55:12.368Z,17.90
2023-02-08T23:00:18.388Z,17.85
2023-02-08T23:05:23.550Z,19.52
2023-02-08T23:10:29.558Z,20.10
2023-02-08T23:15:38.815Z,19.75
2023-02-08T23:20:44.288Z,24.17
2023-02-08T23:25:48.975Z,19.48
2023-02-08T23:30:52.826Z,25.05
2023-02-08T23:35:57.932Z,22.80
2023-02-08T23:41:04.028Z,17.92
2023-02-08T23:46:08.686Z,17.77
2023-02-08T23:51:13.832Z,14.35
2023-02-08T23:56:20.662Z,17.58
